createdAt,value
2022-09-22T00:01:37.416Z,54.00
2022-09-22T00:04:12.989Z,54.10
2022-09-22T00:06:47.571Z,54.10
2022-09-22T00:09:20.507Z,54.00
2022-09-22T00:11:52.930Z,54.10
2022-09-22T00:14:28.514Z,54.10
2022-09-22T00:17:03.539Z,54.20
2022-09-22T00:19:34.411Z,54.10
2022-09-22T00:22:01.323Z,54.10
2022-09-22T00:24:29.380Z,54.20
2022-09-22T00:26:59.299Z,54.20
2022-09-22T00:29:28.286Z,54.30
2022-09-22T00:32:00.359Z,54.40
2022-09-22T00:34:32.501Z,54.40
2022-09-22T00:37:02.357Z,54.50
2022-09-22T00:39:30.796Z,54.50
2022-09-22T00:42:00.808Z,54.50
2022-09-22T00:44:37.739Z,54.60
2022-09-22T00:47:42.286Z,54.70
2022-09-22T00:50:23.973Z,54.70
2022-09-22T00:53:10.167Z,54.90
2022-09-22T00:55:39.751Z,55.00
2022-09-22T00:58:17.390Z,54.80
2022-09-22T01:00:46.691Z,54.90
2022-09-22T01:03:19.558Z,54.90
2022-09-22T01:05:53.596Z,55.00
2022-09-22T01:08:26.991Z,55.00
2022-09-22T01:10:57.441Z,55.00
2022-09-22T01:13:46.165Z,55.30
2022-09-22T01:16:45.247Z,55.20
2022-09-22T01:19:56.951Z,55.10
2022-09-22T01:23:20.147Z,55.20
2022-09-22T01:26:31.196Z,55.10
2022-09-22T01:29:38.869Z,54.80
2022-09-22T01:32:31.609Z,55.00
2022-09-22T01:35:20.847Z,54.90
2022-09-22T01:38:11.557Z,54.90
2022-09-22T01:40:42.779Z,54.90
2022-09-22T01:43:47.897Z,54.80
2022-09-22T01:46:25.245Z,55.00
2022-09-22T01:48:54.551Z,54.90
2022-09-22T01:51:45.144Z,54.90
2022-09-22T01:54:31.426Z,55.10
2022-09-22T01:57:21.411Z,55.00
2022-09-22T01:59:53.783Z,55.00
2022-09-22T02:03:08.653Z,55.00
2022-09-22T02:05:44.195Z,55.30
2022-09-22T02:08:21.788Z,55.10
2022-09-22T02:10:52.823Z,55.10
2022-09-22T02:13:19.923Z,55.10
2022-09-22T02:16:02.207Z,55.20
2022-09-22T02:18:47.288Z,55.20
2022-09-22T02:21:15.711Z,55.20
2022-09-22T02:23:44.521Z,55.10
2022-09-22T02:26:23.710Z,55.10
2022-09-22T02:29:00.838Z,55.20
2022-09-22T02:31:34.384Z,55.20
2022-09-22T02:34:03.122Z,55.20
2022-09-22T02:36:47.701Z,55.30
2022-09-22T02:39:24.087Z,55.30
2022-09-22T02:42:24.795Z,55.30
2022-09-22T02:45:16.217Z,55.30
2022-09-22T02:47:57.503Z,55.40
2022-09-22T02:50:29.453Z,55.40
2022-09-22T02:53:10.271Z,55.40
2022-09-22T02:55:39.689Z,55.60
2022-09-22T02:58:11.130Z,55.50
2022-09-22T03:00:38.028Z,55.50
2022-09-22T03:03:07.575Z,55.50
2022-09-22T03:05:34.649Z,55.50
2022-09-22T03:08:03.982Z,55.40
2022-09-22T03:10:31.076Z,55.40
2022-09-22T03:13:15.391Z,55.40
2022-09-22T03:15:44.264Z,55.40
2022-09-22T03:18:11.329Z,55.40
2022-09-22T03:20:40.668Z,55.40
2022-09-22T03:23:10.430Z,55.40
2022-09-22T03:25:37.333Z,55.50
2022-09-22T03:28:06.681Z,55.50
2022-09-22T03:30:40.307Z,55.60
2022-09-22T03:33:07.355Z,55.60
2022-09-22T03:35:34.394Z,55.60
2022-09-22T03:38:01.359Z,55.70
2022-09-22T03:40:28.414Z,55.80
2022-09-22T03:42:55.690Z,55.80
2022-09-22T03:45:23.370Z,55.90
2022-09-22T03:47:50.196Z,56.00
2022-09-22T03:50:17.217Z,56.00
2022-09-22T03:52:46.588Z,56.00
2022-09-22T03:55:13.520Z,56.00
2022-09-22T03:57:43.396Z,56.00
2022-09-22T04:00:11.387Z,56.00
2022-09-22T04:02:38.552Z,55.90
2022-09-22T04:05:06.181Z,55.90
2022-09-22T04:07:39.922Z,55.80
2022-09-22T04:10:07.791Z,55.60
2022-09-22T04:12:34.974Z,55.60
2022-09-22T04:15:01.853Z,55.70
2022-09-22T04:17:30.835Z,55.70
2022-09-22T04:20:00.148Z,55.70
2022-09-22T04:22:27.047Z,55.80
2022-09-22T04:24:54.198Z,55.80
2022-09-22T04:27:21.414Z,55.80
2022-09-22T04:29:51.449Z,55.90
2022-09-22T04:32:19.077Z,55.90
2022-09-22T04:34:51.028Z,55.90
2022-09-22T04:37:20.341Z,55.90
2022-09-22T04:39:50.322Z,55.90
2022-09-22T04:42:19.641Z,55.90
2022-09-22T04:44:46.856Z,55.90
2022-09-22T04:47:13.914Z,55.90
2022-09-22T04:49:40.735Z,55.90
2022-09-22T04:52:07.967Z,55.90
2022-09-22T04:54:34.877Z,55.90
2022-09-22T04:57:02.828Z,55.90
2022-09-22T04:59:32.061Z,55.90
2022-09-22T05:02:01.859Z,55.90
2022-09-22T05:04:29.021Z,56.00
2022-09-22T05:06:56.026Z,56.00
2022-09-22T05:09:22.925Z,56.00
2022-09-22T05:11:52.505Z,56.00
2022-09-22T05:14:26.191Z,56.10
2022-09-22T05:16:55.560Z,56.80
2022-09-22T05:19:24.789Z,56.10
2022-09-22T05:21:52.021Z,56.10
2022-09-22T05:24:21.416Z,56.20
2022-09-22T05:26:48.303Z,56.20
2022-09-22T05:29:18.166Z,56.20
2022-09-22T05:31:47.599Z,56.30
2022-09-22T05:34:14.528Z,56.30
2022-09-22T05:36:41.374Z,56.20
2022-09-22T05:39:13.718Z,56.20
2022-09-22T05:41:42.724Z,56.20
2022-09-22T05:44:09.594Z,56.20
2022-09-22T05:46:36.509Z,56.20
2022-09-22T05:49:07.885Z,56.30
2022-09-22T05:51:34.677Z,56.30
2022-09-22T05:54:03.867Z,56.40
2022-09-22T05:56:38.300Z,56.40
2022-09-22T05:59:05.158Z,56.50
2022-09-22T06:01:32.070Z,56.50
2022-09-22T06:04:01.482Z,56.50
2022-09-22T06:06:33.354Z,56.50
2022-09-22T06:09:00.352Z,56.60
2022-09-22T06:11:29.589Z,56.60
2022-09-22T06:13:58.614Z,56.70
2022-09-22T06:16:25.562Z,56.70
2022-09-22T06:18:57.491Z,56.80
2022-09-22T06:21:26.517Z,56.90
2022-09-22T06:23:53.401Z,56.90
2022-09-22T06:26:20.236Z,56.90
2022-09-22T06:28:49.581Z,56.90
2022-09-22T06:31:16.477Z,57.10
2022-09-22T06:33:48.654Z,57.20
2022-09-22T06:36:23.164Z,57.20
2022-09-22T06:38:54.134Z,57.30
2022-09-22T06:41:21.037Z,57.30
2022-09-22T06:43:48.807Z,57.30
2022-09-22T06:46:18.618Z,57.30
2022-09-22T06:48:45.556Z,57.40
2022-09-22T06:51:14.746Z,57.40
2022-09-22T06:53:41.606Z,57.50
2022-09-22T06:56:10.726Z,57.40
2022-09-22T06:58:58.720Z,57.50
2022-09-22T07:01:30.200Z,57.50
2022-09-22T07:03:59.902Z,57.60
2022-09-22T07:06:26.974Z,57.70
2022-09-22T07:08:58.645Z,57.70
2022-09-22T07:11:25.462Z,57.90
2022-09-22T07:13:54.664Z,58.00
2022-09-22T07:16:28.839Z,57.70
2022-09-22T07:18:58.474Z,57.80
2022-09-22T07:21:32.921Z,57.80
2022-09-22T07:24:02.351Z,58.00
2022-09-22T07:26:37.825Z,58.00
2022-09-22T07:29:11.495Z,58.20
2022-09-22T07:31:42.174Z,58.30
2022-09-22T07:34:09.169Z,58.40
2022-09-22T07:36:38.336Z,58.50
2022-09-22T07:39:08.318Z,58.60
2022-09-22T07:41:44.265Z,58.70
2022-09-22T07:44:32.954Z,59.10
2022-09-22T07:47:04.728Z,58.60
2022-09-22T07:49:32.187Z,58.60
2022-09-22T07:51:59.436Z,58.50
2022-09-22T07:54:29.375Z,58.40
2022-09-22T07:56:58.739Z,58.40
2022-09-22T07:59:29.204Z,58.50
2022-09-22T08:01:56.314Z,58.40
2022-09-22T08:04:23.730Z,58.40
2022-09-22T08:06:58.280Z,58.10
2022-09-22T08:09:26.049Z,57.50
2022-09-22T08:11:58.055Z,57.10
2022-09-22T08:14:27.759Z,56.50
2022-09-22T08:16:54.562Z,55.60
2022-09-22T08:19:33.819Z,54.80
2022-09-22T08:22:05.229Z,53.90
2022-09-22T08:24:32.016Z,53.20
2022-09-22T08:26:58.857Z,53.00
2022-09-22T08:29:32.816Z,52.20
2022-09-22T08:31:59.628Z,51.00
2022-09-22T08:34:26.711Z,49.90
2022-09-22T08:36:53.556Z,49.00
2022-09-22T08:39:20.478Z,48.10
2022-09-22T08:41:50.259Z,47.70
2022-09-22T08:44:28.203Z,46.60
2022-09-22T08:47:03.124Z,45.60
2022-09-22T08:50:07.965Z,45.30
2022-09-22T08:52:49.248Z,44.10
2022-09-22T08:55:25.932Z,44.00
2022-09-22T08:58:08.667Z,45.00
2022-09-22T09:00:45.502Z,43.20
2022-09-22T09:03:41.020Z,43.00
2022-09-22T09:06:20.823Z,41.90
2022-09-22T09:09:05.799Z,41.90
2022-09-22T09:11:46.106Z,41.10
2022-09-22T09:14:30.404Z,40.80
2022-09-22T09:17:15.151Z,40.20
2022-09-22T09:20:01.303Z,39.90
2022-09-22T09:22:42.687Z,39.30
2022-09-22T09:25:40.702Z,39.50
2022-09-22T09:28:25.369Z,38.80
2022-09-22T09:31:04.680Z,38.90
2022-09-22T09:34:13.450Z,38.90
2022-09-22T09:36:48.110Z,38.20
2022-09-22T09:39:20.795Z,38.50
2022-09-22T09:41:50.945Z,38.20
2022-09-22T09:44:28.556Z,38.10
2022-09-22T09:47:11.608Z,38.00
2022-09-22T09:49:41.324Z,37.10
2022-09-22T09:52:15.215Z,37.20
2022-09-22T09:54:47.512Z,36.90
2022-09-22T09:57:19.448Z,36.80
2022-09-22T10:00:34.811Z,36.70
2022-09-22T10:03:24.175Z,36.50
2022-09-22T10:06:07.107Z,35.70
2022-09-22T10:08:44.684Z,35.80
2022-09-22T10:11:16.038Z,36.40
2022-09-22T10:13:44.456Z,36.70
2022-09-22T10:16:23.099Z,36.50
2022-09-22T10:19:04.881Z,36.40
2022-09-22T10:21:31.917Z,36.80
2022-09-22T10:24:01.318Z,36.60
2022-09-22T10:26:33.557Z,36.60
2022-09-22T10:29:09.009Z,36.60
2022-09-22T10:31:39.021Z,36.80
2022-09-22T10:34:28.806Z,36.90
2022-09-22T10:36:57.387Z,36.80
2022-09-22T10:39:58.548Z,36.70
2022-09-22T10:42:44.209Z,36.40
2022-09-22T10:45:19.099Z,36.80
2022-09-22T10:47:56.566Z,37.00
2022-09-22T10:50:41.499Z,37.00
2022-09-22T10:53:11.391Z,36.50
2022-09-22T10:56:14.888Z,36.70
2022-09-22T10:59:02.743Z,36.10
2022-09-22T11:01:56.259Z,36.50
2022-09-22T11:04:57.171Z,36.00
2022-09-22T11:08:26.533Z,36.40
2022-09-22T11:11:23.977Z,36.30
2022-09-22T11:14:42.559Z,36.70
2022-09-22T11:17:17.995Z,36.20
2022-09-22T11:20:08.932Z,36.40
2022-09-22T11:23:24.712Z,36.50
2022-09-22T11:26:13.150Z,36.20
2022-09-22T11:29:27.875Z,36.60
2022-09-22T11:32:26.857Z,36.20
2022-09-22T11:35:27.118Z,35.90
2022-09-22T11:38:21.356Z,35.60
2022-09-22T11:41:25.448Z,36.30
2022-09-22T11:44:16.554Z,35.80
2022-09-22T11:47:08.441Z,36.10
2022-09-22T11:50:34.973Z,36.20
2022-09-22T11:53:54.993Z,36.40
2022-09-22T11:56:53.954Z,36.40
2022-09-22T11:59:57.355Z,36.30
2022-09-22T12:02:28.101Z,36.20
2022-09-22T12:05:23.339Z,35.70
2022-09-22T12:08:21.012Z,35.90
2022-09-22T12:10:50.122Z,35.80
2022-09-22T12:13:28.044Z,36.20
2022-09-22T12:16:30.961Z,36.20
2022-09-22T12:19:15.146Z,36.30
2022-09-22T12:22:11.909Z,36.60
2022-09-22T12:24:39.820Z,36.80
2022-09-22T12:27:24.210Z,37.10
2022-09-22T12:30:00.613Z,36.80
2022-09-22T12:32:41.859Z,36.90
2022-09-22T12:35:20.570Z,36.70
2022-09-22T12:37:47.496Z,36.90
2022-09-22T12:40:14.291Z,37.10
2022-09-22T12:42:50.661Z,36.90
2022-09-22T12:45:38.237Z,37.00
2022-09-22T12:48:35.570Z,36.80
2022-09-22T12:51:41.493Z,36.70
2022-09-22T12:54:23.654Z,37.00
2022-09-22T12:57:21.212Z,37.30
2022-09-22T13:00:07.720Z,37.30
2022-09-22T13:02:43.501Z,36.60
2022-09-22T13:05:10.258Z,37.20
2022-09-22T13:07:44.357Z,37.30
2022-09-22T13:10:23.349Z,37.20
2022-09-22T13:13:02.417Z,37.50
2022-09-22T13:15:57.176Z,37.60
2022-09-22T13:18:37.843Z,37.40
2022-09-22T13:21:13.801Z,37.50
2022-09-22T13:23:55.882Z,37.60
2022-09-22T13:26:29.188Z,37.30
2022-09-22T13:29:01.331Z,37.50
2022-09-22T13:31:28.918Z,37.10
2022-09-22T13:33:55.798Z,37.10
2022-09-22T13:36:25.269Z,37.20
2022-09-22T13:38:55.948Z,37.00
2022-09-22T13:41:29.837Z,36.90
2022-09-22T13:44:19.787Z,37.40
2022-09-22T13:46:51.040Z,37.10
2022-09-22T13:49:42.219Z,37.10
2022-09-22T13:52:17.745Z,37.60
2022-09-22T13:54:49.749Z,36.90
2022-09-22T13:57:31.157Z,36.90
2022-09-22T14:00:01.416Z,37.30
2022-09-22T14:02:32.267Z,37.80
2022-09-22T14:05:08.174Z,37.80
2022-09-22T14:07:55.144Z,37.60
2022-09-22T14:10:29.582Z,37.60
2022-09-22T14:12:56.849Z,37.50
2022-09-22T14:15:47.542Z,37.60
2022-09-22T14:18:21.027Z,38.40
2022-09-22T14:20:48.315Z,37.50
2022-09-22T14:23:37.611Z,37.70
2022-09-22T14:26:29.553Z,38.00
2022-09-22T14:28:59.039Z,37.90
2022-09-22T14:31:29.424Z,38.10
2022-09-22T14:34:02.268Z,38.30
2022-09-22T14:36:29.723Z,38.50
2022-09-22T14:39:10.078Z,38.50
2022-09-22T14:41:38.024Z,38.70
2022-09-22T14:44:48.308Z,38.90
2022-09-22T14:47:39.109Z,39.40
2022-09-22T14:50:39.992Z,39.50
2022-09-22T14:53:14.024Z,39.50
2022-09-22T14:55:48.177Z,39.10
2022-09-22T14:58:22.606Z,39.20
2022-09-22T15:01:25.042Z,39.60
2022-09-22T15:04:24.062Z,39.50
2022-09-22T15:06:59.953Z,39.60
2022-09-22T15:09:40.473Z,39.80
2022-09-22T15:12:36.630Z,39.90
2022-09-22T15:15:27.398Z,39.90
2022-09-22T15:18:16.631Z,39.90
2022-09-22T15:21:10.894Z,40.10
2022-09-22T15:23:48.136Z,40.20
2022-09-22T15:26:25.488Z,39.90
2022-09-22T15:28:56.039Z,39.80
2022-09-22T15:31:26.757Z,40.00
2022-09-22T15:34:01.529Z,40.10
2022-09-22T15:36:33.339Z,40.40
2022-09-22T15:39:33.967Z,40.50
2022-09-22T15:42:06.327Z,40.50
2022-09-22T15:44:37.862Z,40.10
2022-09-22T15:47:17.031Z,39.80
2022-09-22T15:49:46.665Z,40.00
2022-09-22T15:52:13.546Z,40.20
2022-09-22T15:54:40.443Z,40.00
2022-09-22T15:57:07.348Z,40.30
2022-09-22T15:59:35.141Z,40.50
2022-09-22T16:02:02.775Z,40.70
2022-09-22T16:04:32.391Z,40.30
2022-09-22T16:07:03.981Z,40.10
2022-09-22T16:09:35.557Z,40.10
2022-09-22T16:12:10.858Z,40.50
2022-09-22T16:14:39.495Z,40.10
2022-09-22T16:17:08.905Z,40.10
2022-09-22T16:19:38.397Z,40.10
2022-09-22T16:22:07.559Z,40.40
2022-09-22T16:24:38.913Z,40.10
2022-09-22T16:27:07.879Z,39.80
2022-09-22T16:29:37.322Z,39.70
2022-09-22T16:32:04.757Z,39.40
2022-09-22T16:34:31.649Z,39.40
2022-09-22T16:37:00.768Z,39.30
2022-09-22T16:39:27.672Z,39.30
2022-09-22T16:41:56.763Z,39.30
2022-09-22T16:44:23.642Z,39.30
2022-09-22T16:46:52.583Z,39.30
2022-09-22T16:49:21.040Z,39.60
2022-09-22T16:51:55.029Z,39.60
2022-09-22T16:54:25.098Z,39.80
2022-09-22T16:56:54.868Z,39.80
2022-09-22T16:59:24.920Z,40.00
2022-09-22T17:01:52.927Z,40.10
2022-09-22T17:04:20.354Z,40.30
2022-09-22T17:06:53.588Z,40.20
2022-09-22T17:09:20.540Z,40.10
2022-09-22T17:11:57.832Z,40.50
2022-09-22T17:14:25.849Z,40.70
2022-09-22T17:16:55.356Z,40.70
2022-09-22T17:19:31.040Z,40.80
2022-09-22T17:22:02.752Z,40.90
2022-09-22T17:24:32.217Z,41.00
2022-09-22T17:27:01.982Z,41.30
2022-09-22T17:29:33.164Z,41.50
2022-09-22T17:32:08.320Z,41.70
2022-09-22T17:34:36.913Z,41.80
2022-09-22T17:37:04.811Z,42.00
2022-09-22T17:39:34.219Z,42.20
2022-09-22T17:42:01.047Z,42.30
2022-09-22T17:44:33.476Z,42.40
2022-09-22T17:47:21.412Z,42.60
2022-09-22T17:50:25.639Z,42.70
2022-09-22T17:53:14.334Z,42.90
2022-09-22T17:55:43.139Z,43.00
2022-09-22T17:58:10.054Z,43.30
2022-09-22T18:00:42.454Z,43.40
2022-09-22T18:03:09.487Z,44.20
2022-09-22T18:05:38.821Z,43.80
2022-09-22T18:08:08.094Z,43.80
2022-09-22T18:10:37.825Z,44.10
2022-09-22T18:13:09.643Z,44.20
2022-09-22T18:15:38.588Z,44.50
2022-09-22T18:18:07.708Z,44.60
2022-09-22T18:20:34.919Z,44.70
2022-09-22T18:23:04.032Z,45.00
2022-09-22T18:25:34.073Z,45.20
2022-09-22T18:28:01.216Z,45.30
2022-09-22T18:30:28.370Z,45.40
2022-09-22T18:32:56.168Z,45.50
2022-09-22T18:35:28.124Z,45.70
2022-09-22T18:37:55.080Z,45.90
2022-09-22T18:40:23.080Z,45.90
2022-09-22T18:42:55.452Z,46.00
2022-09-22T18:45:25.150Z,46.20
2022-09-22T18:48:02.837Z,46.30
2022-09-22T18:50:34.568Z,47.00
2022-09-22T18:53:01.515Z,46.50
2022-09-22T18:55:29.001Z,46.60
2022-09-22T18:57:58.558Z,46.90
2022-09-22T19:00:29.908Z,46.90
2022-09-22T19:02:57.003Z,46.90
2022-09-22T19:05:24.109Z,46.90
2022-09-22T19:07:54.831Z,47.10
2022-09-22T19:10:22.412Z,47.10
2022-09-22T19:12:54.299Z,47.20
2022-09-22T19:15:22.325Z,47.30
2022-09-22T19:17:50.085Z,47.50
2022-09-22T19:20:22.400Z,47.60
2022-09-22T19:22:52.581Z,47.70
2022-09-22T19:25:21.645Z,47.70
2022-09-22T19:27:50.285Z,47.90
2022-09-22T19:30:21.851Z,47.90
2022-09-22T19:32:50.491Z,48.00
2022-09-22T19:35:22.178Z,48.00
2022-09-22T19:37:52.036Z,48.20
2022-09-22T19:40:20.733Z,48.20
2022-09-22T19:42:54.414Z,48.30
2022-09-22T19:45:22.047Z,48.30
2022-09-22T19:47:48.997Z,48.40
2022-09-22T19:50:16.203Z,48.50
2022-09-22T19:52:43.073Z,48.60
2022-09-22T19:55:13.557Z,48.60
2022-09-22T19:57:41.658Z,48.80
2022-09-22T20:00:17.981Z,48.80
2022-09-22T20:02:46.754Z,48.90
2022-09-22T20:05:20.937Z,49.60
2022-09-22T20:07:50.902Z,49.10
2022-09-22T20:10:21.350Z,49.10
2022-09-22T20:12:49.521Z,49.10
2022-09-22T20:15:21.078Z,49.20
2022-09-22T20:17:48.301Z,49.30
2022-09-22T20:20:25.200Z,49.40
2022-09-22T20:23:01.006Z,49.40
2022-09-22T20:25:33.915Z,49.40
2022-09-22T20:28:01.050Z,49.50
2022-09-22T20:30:34.981Z,49.60
2022-09-22T20:33:01.856Z,49.70
2022-09-22T20:35:31.266Z,49.70
2022-09-22T20:38:00.300Z,49.80
2022-09-22T20:40:27.917Z,50.00
2022-09-22T20:42:57.080Z,50.00
2022-09-22T20:45:27.201Z,50.10
2022-09-22T20:47:54.857Z,50.20
2022-09-22T20:50:21.810Z,50.30
2022-09-22T20:52:51.599Z,50.30
2022-09-22T20:55:18.489Z,50.50
2022-09-22T20:57:50.237Z,50.40
2022-09-22T21:00:17.190Z,50.50
2022-09-22T21:02:44.223Z,50.50
2022-09-22T21:05:11.421Z,50.60
2022-09-22T21:07:40.609Z,50.70
2022-09-22T21:10:30.960Z,50.80
2022-09-22T21:12:58.558Z,50.80
2022-09-22T21:15:25.499Z,50.80
2022-09-22T21:17:55.449Z,50.90
2022-09-22T21:20:24.680Z,51.20
2022-09-22T21:22:54.653Z,51.00
2022-09-22T21:25:21.501Z,51.00
2022-09-22T21:27:51.315Z,51.10
2022-09-22T21:30:22.819Z,51.20
2022-09-22T21:32:52.161Z,51.20
2022-09-22T21:35:21.519Z,51.30
2022-09-22T21:37:48.392Z,51.30
2022-09-22T21:40:15.478Z,51.30
2022-09-22T21:42:44.959Z,51.40
2022-09-22T21:45:12.900Z,51.50
2022-09-22T21:47:39.739Z,51.50
2022-09-22T21:50:07.384Z,51.60
2022-09-22T21:52:38.394Z,51.70
2022-09-22T21:55:08.293Z,51.70
2022-09-22T21:57:35.097Z,51.70
2022-09-22T22:00:04.778Z,51.70
2022-09-22T22:02:52.037Z,51.80
2022-09-22T22:05:18.899Z,51.90
2022-09-22T22:07:48.065Z,52.00
2022-09-22T22:10:16.042Z,52.00
2022-09-22T22:12:43.246Z,52.10
2022-09-22T22:15:14.806Z,52.10
2022-09-22T22:17:41.649Z,52.20
2022-09-22T22:20:11.140Z,52.10
2022-09-22T22:22:40.648Z,52.20
2022-09-22T22:25:17.096Z,52.20
2022-09-22T22:27:46.555Z,52.40
2022-09-22T22:30:19.012Z,52.40
2022-09-22T22:32:46.544Z,52.30
2022-09-22T22:35:13.452Z,52.40
2022-09-22T22:37:40.363Z,52.50
2022-09-22T22:40:09.922Z,52.60
2022-09-22T22:42:36.821Z,52.50
2022-09-22T22:45:05.280Z,52.60
2022-09-22T22:47:32.231Z,52.60
2022-09-22T22:50:01.194Z,52.60
2022-09-22T22:52:28.012Z,52.70
2022-09-22T22:54:57.181Z,52.70
2022-09-22T22:57:23.994Z,53.40
2022-09-22T22:59:53.928Z,52.90
2022-09-22T23:02:21.986Z,52.90
2022-09-22T23:04:51.276Z,53.00
2022-09-22T23:07:18.191Z,53.00
2022-09-22T23:09:45.004Z,53.00
2022-09-22T23:12:12.284Z,53.10
2022-09-22T23:14:39.342Z,53.20
2022-09-22T23:17:06.160Z,53.20
2022-09-22T23:19:36.003Z,53.30
2022-09-22T23:22:05.685Z,53.30
2022-09-22T23:24:32.567Z,53.40
2022-09-22T23:27:02.201Z,53.40
2022-09-22T23:29:31.514Z,53.40
2022-09-22T23:32:00.452Z,53.30
2022-09-22T23:34:29.384Z,53.30
2022-09-22T23:36:56.450Z,53.40
2022-09-22T23:39:26.451Z,53.40
2022-09-22T23:41:53.270Z,53.40
2022-09-22T23:44:22.437Z,53.40
2022-09-22T23:46:49.329Z,53.50
2022-09-22T23:49:18.242Z,53.50
2022-09-22T23:51:45.334Z,53.50
2022-09-22T23:54:15.628Z,53.50
2022-09-22T23:56:45.934Z,53.60
2022-09-22T23:59:12.968Z,53.60
